X  Cerrar Datos meteorológicos de aviación METAR     EHRD Rotterdam The Hague Airport
Temperatura
15°C Temperatura
12°C Punto de rocío
82% Humedad



Viento
1 M/S
2 MPH
3 KM/H
2 NUDO



Calma
N
Condiciones actuales

Claro Claro
Presión 1013.88 (hPa) - 29.94 (inHg)
Visibilidad 6 (milla) - 9.7 (km)
Aeropuerto
Código de aeropuerto EHRD

localidad: Rotterdam The Hague Airport
Distancia: 23 (km)

Metar:
EHRD 220325Z AUTO VRB02KT 9999 NSC 15/12 Q1014 NOSIG

Hora: 22-07-2024 05:25 CEST